Route Details

Aircraft Information
Group: Boeing 767
Types: B762, B763
Route Data
Distance: 2085nm
Duration: 5h 00m
Origin METAR: PHNL 152353Z 04011KT 10SM FEW023 FEW036 SCT050 32/19 A3000 RMK AO2 SLP159 VCSH N-NE T03170194 10322 20267 58014
Dest. METAR: KSFO 152356Z 31017KT 10SM FEW011 24/12 A2980 RMK AO2 SLP092 T02440122 10244 20206 56015
Freight Data
(for Aug 16, 2022)
Load Factor:
48%
Manifested Cargo: 58,459lbs
Financial History
Total Freight: 96,880lbs
Average Load: 0lbs/flt
Fuel Used: 59,516lbs
Avg. Fuel Used: 0lbs/flt
Fuel Expense: $32,734
Avg. Fuel Expense: $0
Avg. Fuel Cost: $0/lbs
Total Gross Income: $253,826
Pilot Pay: $169
Total Expenses: $49,484
Total Revenue: $170,175
Average Revenue: $0

Capitol Logistics 423




PHNL
Daniel K Inouye International Airport
Honolulu, Hawaii
KSFO
San Francisco International Airport
San Francisco, California

Activity Log

Date Flight Route Aircraft Duration
07/15/2022 CPX423 MKK4 CLUTS R465 CORTT/N0464F350 R465 CINNY PIRAT2 B763 4h 24m